createdAt,value
2018-01-24T00:01:44.700Z,6.40
2018-01-24T00:04:15.161Z,7.10
2018-01-24T00:06:44.849Z,6.90
2018-01-24T00:09:14.543Z,6.20
2018-01-24T00:11:44.999Z,6.37
2018-01-24T00:14:15.318Z,7.00
2018-01-24T00:16:45.000Z,7.23
2018-01-24T00:19:16.831Z,6.93
2018-01-24T00:21:46.590Z,6.17
2018-01-24T00:24:16.260Z,5.93
2018-01-24T00:26:45.994Z,6.57
2018-01-24T00:29:16.803Z,5.80
2018-01-24T00:31:46.513Z,6.37
2018-01-24T00:34:16.240Z,5.17
2018-01-24T00:36:46.685Z,5.73
2018-01-24T00:39:17.163Z,5.60
2018-01-24T00:41:46.818Z,6.73
2018-01-24T00:44:17.645Z,6.20
2018-01-24T00:46:48.136Z,6.73
2018-01-24T00:49:17.840Z,6.37
2018-01-24T00:51:47.514Z,6.60
2018-01-24T00:54:17.197Z,6.30
2018-01-24T00:56:46.871Z,6.90
2018-01-24T00:59:16.531Z,7.10
2018-01-24T01:01:46.305Z,7.40
2018-01-24T01:04:15.971Z,8.07
2018-01-24T01:06:45.670Z,7.80
2018-01-24T01:09:15.340Z,7.77
2018-01-24T01:11:45.027Z,9.60
2018-01-24T01:14:14.702Z,10.73
2018-01-24T01:16:44.393Z,10.47
2018-01-24T01:19:14.051Z,9.77
2018-01-24T01:21:43.777Z,10.60
2018-01-24T01:24:13.570Z,11.90
2018-01-24T01:26:43.282Z,10.60
2018-01-24T01:29:13.026Z,10.30
2018-01-24T01:31:42.806Z,11.27
2018-01-24T01:34:14.109Z,10.27
2018-01-24T01:36:45.796Z,8.93
2018-01-24T01:39:17.129Z,8.20
2018-01-24T01:41:48.402Z,7.63
2018-01-24T01:44:20.002Z,6.77
2018-01-24T01:46:52.487Z,6.37
2018-01-24T01:49:22.353Z,5.10
2018-01-24T01:51:52.247Z,5.50
2018-01-24T01:54:22.132Z,5.03
2018-01-24T01:56:52.054Z,5.83
2018-01-24T01:59:21.762Z,6.20
2018-01-24T02:01:51.478Z,6.67
2018-01-24T02:04:21.128Z,6.97
2018-01-24T02:06:50.817Z,6.47
2018-01-24T02:09:20.519Z,6.50
2018-01-24T02:11:50.505Z,5.80
2018-01-24T02:14:20.206Z,6.30
2018-01-24T02:16:49.913Z,6.60
2018-01-24T02:19:20.328Z,5.60
2018-01-24T02:21:50.783Z,5.57
2018-01-24T02:24:20.485Z,4.43
2018-01-24T02:26:50.193Z,5.67
2018-01-24T02:29:19.880Z,4.90
2018-01-24T02:31:50.343Z,5.50
2018-01-24T02:34:20.046Z,5.30
2018-01-24T02:36:49.732Z,5.60
2018-01-24T02:39:20.166Z,5.10
2018-01-24T02:41:50.590Z,5.37
2018-01-24T02:44:21.069Z,5.30
2018-01-24T02:46:50.699Z,5.13
2018-01-24T02:49:20.445Z,5.90
2018-01-24T02:51:50.146Z,4.77
2018-01-24T02:54:19.844Z,5.40
2018-01-24T02:56:50.294Z,4.53
2018-01-24T02:59:19.982Z,4.50
2018-01-24T03:01:50.454Z,5.23
2018-01-24T03:04:20.269Z,5.37
2018-01-24T03:06:50.578Z,4.60
2018-01-24T03:09:20.251Z,4.70
2018-01-24T03:11:51.218Z,4.27
2018-01-24T03:14:20.878Z,3.83
2018-01-24T03:16:50.581Z,4.87
2018-01-24T03:19:20.268Z,3.57
2018-01-24T03:21:49.956Z,3.13
2018-01-24T03:24:19.625Z,3.20
2018-01-24T03:26:49.308Z,2.90
2018-01-24T03:29:18.991Z,2.83
2018-01-24T03:31:48.654Z,2.83
2018-01-24T03:34:18.540Z,2.90
2018-01-24T03:36:48.205Z,2.50
2018-01-24T03:39:17.898Z,2.80
2018-01-24T03:41:48.370Z,2.60
2018-01-24T03:44:18.042Z,3.10
2018-01-24T03:46:48.492Z,2.90
2018-01-24T03:49:18.202Z,3.40
2018-01-24T03:51:47.921Z,3.07
2018-01-24T03:54:18.852Z,3.23
2018-01-24T03:56:48.513Z,3.03
2018-01-24T03:59:19.045Z,3.00
2018-01-24T04:01:48.881Z,3.60
2018-01-24T04:04:19.339Z,3.00
2018-01-24T04:06:49.087Z,3.00
2018-01-24T04:09:18.780Z,3.43
2018-01-24T04:11:48.473Z,3.13
2018-01-24T04:14:18.182Z,3.90
2018-01-24T04:16:47.862Z,2.63
2018-01-24T04:19:17.587Z,2.20
2018-01-24T04:21:47.293Z,2.40
2018-01-24T04:24:16.997Z,3.33
2018-01-24T04:26:46.656Z,2.93
2018-01-24T04:29:16.341Z,3.27
2018-01-24T04:31:46.003Z,3.67
2018-01-24T04:34:16.529Z,4.00
2018-01-24T04:36:46.952Z,5.00
2018-01-24T04:39:17.417Z,4.87
2018-01-24T04:41:47.115Z,4.43
2018-01-24T04:44:16.860Z,4.60
2018-01-24T04:46:46.949Z,4.30
2018-01-24T04:49:16.644Z,4.40
2018-01-24T04:51:47.268Z,5.03
2018-01-24T04:54:17.752Z,4.60
2018-01-24T04:56:47.710Z,4.27
2018-01-24T04:59:18.322Z,4.33
2018-01-24T05:01:48.185Z,4.10
2018-01-24T05:04:17.912Z,4.40
2018-01-24T05:06:47.792Z,3.77
2018-01-24T05:09:17.986Z,3.90
2018-01-24T05:11:48.628Z,3.77
2018-01-24T05:14:19.258Z,3.87
2018-01-24T05:16:49.888Z,3.60
2018-01-24T05:19:20.574Z,4.10
2018-01-24T05:21:50.440Z,3.60
2018-01-24T05:24:20.943Z,3.63
2018-01-24T05:26:50.611Z,3.00
2018-01-24T05:29:20.293Z,3.70
2018-01-24T05:31:50.019Z,4.93
2018-01-24T05:34:19.694Z,2.47
2018-01-24T05:36:50.124Z,2.10
2018-01-24T05:39:20.561Z,2.87
2018-01-24T05:41:51.737Z,3.77
2018-01-24T05:44:21.403Z,3.80
2018-01-24T05:46:52.444Z,3.20
2018-01-24T05:49:22.877Z,3.50
2018-01-24T05:51:54.423Z,2.83
2018-01-24T05:54:24.857Z,3.10
2018-01-24T05:56:55.608Z,2.70
2018-01-24T05:59:25.297Z,2.63
2018-01-24T06:01:56.029Z,2.80
2018-01-24T06:04:26.446Z,2.97
2018-01-24T06:06:57.237Z,3.47
2018-01-24T06:09:26.906Z,3.53
2018-01-24T06:11:58.185Z,3.27
2018-01-24T06:14:27.856Z,3.23
2018-01-24T06:16:59.002Z,3.47
2018-01-24T06:19:29.819Z,3.30
2018-01-24T06:21:59.475Z,4.30
2018-01-24T06:24:29.169Z,3.70
2018-01-24T06:26:58.886Z,3.23
2018-01-24T06:29:29.976Z,2.93
2018-01-24T06:31:59.656Z,3.40
2018-01-24T06:34:29.329Z,3.23
2018-01-24T06:37:00.068Z,3.30
2018-01-24T06:39:30.389Z,3.30
2018-01-24T06:42:00.814Z,2.70
2018-01-24T06:44:31.790Z,2.70
2018-01-24T06:47:01.434Z,2.20
2018-01-24T06:49:31.365Z,3.13
2018-01-24T06:52:01.831Z,2.70
2018-01-24T06:54:32.305Z,2.90
2018-01-24T06:57:01.957Z,2.97
2018-01-24T06:59:31.664Z,3.33
2018-01-24T07:02:01.434Z,3.20
2018-01-24T07:04:31.258Z,3.17
2018-01-24T07:07:01.690Z,3.23
2018-01-24T07:09:32.115Z,2.80
2018-01-24T07:12:13.634Z,3.27
2018-01-24T07:14:44.823Z,3.33
2018-01-24T07:17:14.499Z,3.50
2018-01-24T07:19:44.274Z,3.33
2018-01-24T07:22:14.933Z,3.70
2018-01-24T07:24:44.602Z,3.97
2018-01-24T07:27:15.053Z,4.50
2018-01-24T07:29:44.702Z,3.30
2018-01-24T07:32:14.373Z,3.43
2018-01-24T07:34:44.473Z,3.50
2018-01-24T07:37:14.943Z,3.43
2018-01-24T07:39:44.648Z,3.57
2018-01-24T07:42:14.377Z,4.23
2018-01-24T07:44:44.465Z,4.30
2018-01-24T07:47:14.166Z,4.30
2018-01-24T07:49:44.025Z,4.20
2018-01-24T07:52:13.686Z,4.30
2018-01-24T07:54:43.469Z,4.60
2018-01-24T07:57:13.932Z,4.00
2018-01-24T07:59:43.571Z,3.70
2018-01-24T08:02:13.301Z,4.20
2018-01-24T08:04:43.242Z,4.87
2018-01-24T08:07:13.641Z,4.80
2018-01-24T08:09:43.505Z,4.80
2018-01-24T08:12:13.927Z,4.93
2018-01-24T08:14:43.713Z,4.70
2018-01-24T08:17:14.154Z,5.27
2018-01-24T08:19:43.863Z,5.83
2018-01-24T08:22:14.335Z,4.93
2018-01-24T08:24:44.992Z,5.37
2018-01-24T08:27:14.870Z,4.77
2018-01-24T08:29:44.530Z,5.20
2018-01-24T08:32:15.273Z,4.77
2018-01-24T08:34:47.374Z,6.20
2018-01-24T08:37:17.045Z,5.47
2018-01-24T08:39:47.487Z,4.70
2018-01-24T08:42:17.187Z,4.67
2018-01-24T08:44:47.630Z,5.33
2018-01-24T08:47:17.310Z,5.97
2018-01-24T08:49:47.718Z,5.47
2018-01-24T08:52:17.394Z,5.30
2018-01-24T08:54:47.232Z,4.60
2018-01-24T08:57:18.072Z,4.73
2018-01-24T08:59:48.681Z,4.87
2018-01-24T09:02:18.745Z,5.23
2018-01-24T09:04:49.201Z,4.57
2018-01-24T09:07:18.900Z,4.97
2018-01-24T09:09:48.962Z,4.50
2018-01-24T09:12:19.558Z,4.43
2018-01-24T09:14:49.347Z,4.87
2018-01-24T09:17:19.854Z,3.80
2018-01-24T09:19:49.594Z,4.10
2018-01-24T09:22:19.301Z,3.67
2018-01-24T09:24:48.990Z,4.07
2018-01-24T09:27:19.582Z,3.60
2018-01-24T09:29:49.313Z,3.40
2018-01-24T09:32:20.946Z,3.50
2018-01-24T09:34:48.928Z,3.30
2018-01-24T09:37:18.595Z,4.50
2018-01-24T09:39:48.407Z,4.90
2018-01-24T09:42:18.630Z,6.63
2018-01-24T09:44:48.338Z,5.10
2018-01-24T09:47:19.021Z,5.77
2018-01-24T09:49:48.715Z,7.30
2018-01-24T09:52:18.574Z,6.50
2018-01-24T09:54:49.185Z,6.00
2018-01-24T09:57:18.866Z,6.13
2018-01-24T09:59:48.596Z,6.03
2018-01-24T10:02:18.280Z,5.90
2018-01-24T10:04:47.951Z,5.27
2018-01-24T10:07:17.626Z,4.20
2018-01-24T10:09:47.318Z,4.57
2018-01-24T10:12:16.992Z,3.73
2018-01-24T10:14:46.785Z,3.83
2018-01-24T10:17:17.241Z,3.13
2018-01-24T10:19:46.933Z,2.23
2018-01-24T10:22:16.869Z,3.17
2018-01-24T10:24:47.742Z,3.50
2018-01-24T10:27:17.469Z,3.17
2018-01-24T10:29:48.087Z,2.67
2018-01-24T10:32:17.792Z,1.90
2018-01-24T10:34:47.631Z,1.43
2018-01-24T10:37:18.091Z,2.20
2018-01-24T10:39:47.753Z,1.97
2018-01-24T10:42:18.200Z,1.80
2018-01-24T10:44:47.896Z,2.30
2018-01-24T10:47:18.339Z,2.43
2018-01-24T10:49:48.860Z,2.00
2018-01-24T10:52:19.564Z,2.20
2018-01-24T10:54:49.202Z,1.40
2018-01-24T10:57:19.696Z,2.80
2018-01-24T10:59:49.354Z,1.70
2018-01-24T11:02:19.142Z,2.07
2018-01-24T11:04:49.566Z,1.93
2018-01-24T11:07:20.046Z,2.57
2018-01-24T11:09:49.757Z,2.57
2018-01-24T11:12:19.529Z,1.90
2018-01-24T11:14:49.236Z,1.70
2018-01-24T11:17:18.933Z,2.40
2018-01-24T11:19:50.264Z,2.43
2018-01-24T11:22:20.754Z,1.90
2018-01-24T11:24:51.970Z,1.50
2018-01-24T11:27:21.622Z,1.80
2018-01-24T11:29:51.308Z,2.13
2018-01-24T11:32:21.296Z,1.50
2018-01-24T11:34:51.728Z,2.33
2018-01-24T11:37:22.201Z,1.20
2018-01-24T11:39:51.877Z,1.10
2018-01-24T11:42:21.558Z,1.37
2018-01-24T11:44:52.023Z,1.53
2018-01-24T11:47:21.681Z,1.30
2018-01-24T11:49:51.443Z,1.77
2018-01-24T11:52:21.117Z,1.23
2018-01-24T11:54:53.081Z,1.03
2018-01-24T11:57:23.532Z,0.90
2018-01-24T11:59:53.265Z,1.30
2018-01-24T12:02:22.949Z,1.30
2018-01-24T12:04:52.666Z,1.00
2018-01-24T12:07:22.329Z,2.00
2018-01-24T12:09:52.018Z,1.60
2018-01-24T12:12:21.943Z,1.17
2018-01-24T12:14:51.644Z,1.23
2018-01-24T12:17:21.305Z,1.20
2018-01-24T12:19:51.159Z,1.87
2018-01-24T12:22:20.820Z,1.60
2018-01-24T12:24:51.282Z,1.80
2018-01-24T12:27:22.273Z,1.40
2018-01-24T12:29:53.145Z,1.03
2018-01-24T12:32:22.852Z,1.50
2018-01-24T12:34:52.558Z,1.17
2018-01-24T12:37:22.240Z,1.20
2018-01-24T12:39:53.292Z,1.13
2018-01-24T12:42:22.998Z,1.47
2018-01-24T12:44:54.526Z,1.33
2018-01-24T12:47:24.176Z,1.40
2018-01-24T12:49:53.851Z,1.73
2018-01-24T12:52:24.298Z,1.13
2018-01-24T12:54:54.757Z,1.70
2018-01-24T12:57:24.804Z,1.27
2018-01-24T12:59:54.462Z,1.27
2018-01-24T13:02:24.141Z,1.50
2018-01-24T13:04:54.588Z,1.33
2018-01-24T13:07:24.317Z,1.87
2018-01-24T13:09:54.006Z,1.27
2018-01-24T13:12:24.446Z,1.50
2018-01-24T13:14:54.245Z,1.47
2018-01-24T13:17:24.691Z,1.30
2018-01-24T13:19:54.526Z,1.37
2018-01-24T13:22:24.275Z,1.77
2018-01-24T13:24:53.997Z,2.00
2018-01-24T13:27:24.486Z,2.23
2018-01-24T13:29:54.238Z,2.20
2018-01-24T13:32:24.937Z,1.70
2018-01-24T13:34:54.917Z,2.30
2018-01-24T13:37:24.725Z,1.77
2018-01-24T13:39:54.831Z,2.43
2018-01-24T13:42:24.658Z,1.47
2018-01-24T13:44:55.865Z,1.70
2018-01-24T13:47:26.811Z,1.87
2018-01-24T13:49:57.374Z,1.40
2018-01-24T13:52:27.246Z,1.70
2018-01-24T13:54:57.890Z,1.97
2018-01-24T13:57:28.554Z,2.70
2018-01-24T13:59:58.403Z,2.30
2018-01-24T14:02:28.379Z,2.70
2018-01-24T14:04:58.825Z,2.37
2018-01-24T14:07:28.822Z,2.30
2018-01-24T14:09:59.255Z,2.60
2018-01-24T14:12:29.087Z,2.00
2018-01-24T14:14:58.993Z,2.20
2018-01-24T14:17:28.803Z,2.20
2018-01-24T14:19:58.716Z,2.60
2018-01-24T14:22:28.533Z,2.60
2018-01-24T14:24:59.157Z,2.40
2018-01-24T14:27:28.991Z,2.27
2018-01-24T14:29:59.972Z,2.20
2018-01-24T14:32:29.818Z,2.77
2018-01-24T14:34:59.669Z,2.60
2018-01-24T14:37:29.504Z,2.83
2018-01-24T14:40:00.484Z,3.07
2018-01-24T14:42:30.301Z,2.77
2018-01-24T14:45:00.166Z,2.20
2018-01-24T14:47:30.035Z,2.50
2018-01-24T14:49:59.861Z,2.80
2018-01-24T14:52:29.737Z,2.73
2018-01-24T14:54:59.529Z,2.73
2018-01-24T14:57:29.675Z,3.17
2018-01-24T15:00:00.113Z,3.20
2018-01-24T15:02:29.960Z,2.70
2018-01-24T15:04:59.778Z,2.60
2018-01-24T15:07:30.390Z,3.27
2018-01-24T15:10:00.830Z,3.50
2018-01-24T15:12:31.173Z,3.33
2018-01-24T15:15:01.719Z,3.70
2018-01-24T15:17:31.517Z,2.40
2018-01-24T15:20:02.034Z,3.10
2018-01-24T15:22:32.568Z,3.53
2018-01-24T15:25:03.095Z,2.50
2018-01-24T15:27:33.554Z,3.10
2018-01-24T15:30:03.259Z,3.27
2018-01-24T15:32:32.982Z,2.73
2018-01-24T15:35:02.671Z,3.40
2018-01-24T15:37:33.082Z,3.30
2018-01-24T15:40:02.785Z,3.30
2018-01-24T15:42:33.221Z,3.77
2018-01-24T15:45:03.836Z,3.67
2018-01-24T15:47:34.262Z,3.37
2018-01-24T15:50:05.722Z,3.30
2018-01-24T15:52:36.448Z,4.63
2018-01-24T15:55:06.905Z,3.80
2018-01-24T15:57:36.603Z,3.27
2018-01-24T16:00:06.302Z,4.07
2018-01-24T16:02:36.734Z,4.10
2018-01-24T16:05:07.189Z,3.53
2018-01-24T16:07:37.301Z,4.03
2018-01-24T16:10:06.985Z,3.77
2018-01-24T16:12:37.433Z,4.33
2018-01-24T16:15:07.131Z,3.90
2018-01-24T16:17:36.824Z,4.40
2018-01-24T16:20:07.323Z,3.93
2018-01-24T16:22:37.064Z,3.90
2018-01-24T16:25:07.502Z,4.33
2018-01-24T16:27:37.930Z,4.57
2018-01-24T16:30:08.359Z,4.40
2018-01-24T16:32:38.072Z,3.73
2018-01-24T16:35:07.734Z,3.73
2018-01-24T16:37:37.429Z,3.90
2018-01-24T16:40:07.125Z,4.70
2018-01-24T16:42:36.840Z,4.30
2018-01-24T16:45:06.533Z,4.87
2018-01-24T16:47:36.218Z,3.63
2018-01-24T16:50:06.657Z,3.73
2018-01-24T16:52:36.469Z,3.90
2018-01-24T16:55:06.192Z,4.00
2018-01-24T16:57:35.880Z,4.57
2018-01-24T17:00:05.557Z,4.40
2018-01-24T17:02:35.313Z,4.83
2018-01-24T17:05:04.997Z,3.63
2018-01-24T17:07:35.461Z,4.53
2018-01-24T17:10:05.117Z,4.50
2018-01-24T17:12:34.834Z,4.33
2018-01-24T17:15:05.273Z,4.70
2018-01-24T17:17:35.733Z,4.10
2018-01-24T17:20:05.695Z,4.00
2018-01-24T17:22:35.394Z,4.67
2018-01-24T17:25:05.050Z,4.60
2018-01-24T17:27:34.777Z,4.63
2018-01-24T17:30:04.453Z,4.50
2018-01-24T17:32:34.886Z,3.97
2018-01-24T17:35:05.345Z,4.63
2018-01-24T17:37:35.022Z,4.23
2018-01-24T17:40:04.825Z,4.00
2018-01-24T17:42:35.278Z,4.13
2018-01-24T17:45:05.306Z,4.47
2018-01-24T17:47:34.973Z,4.07
2018-01-24T17:50:05.467Z,4.20
2018-01-24T17:52:35.206Z,3.77
2018-01-24T17:55:05.680Z,3.80
2018-01-24T17:57:35.381Z,4.83
2018-01-24T18:00:05.112Z,4.63
2018-01-24T18:02:36.645Z,4.13
2018-01-24T18:05:06.333Z,4.23
2018-01-24T18:07:36.765Z,4.90
2018-01-24T18:10:06.453Z,4.57
2018-01-24T18:12:36.949Z,4.13
2018-01-24T18:15:06.630Z,3.63
2018-01-24T18:17:36.339Z,4.70
2018-01-24T18:20:06.038Z,4.20
2018-01-24T18:22:35.776Z,3.40
2018-01-24T18:25:06.894Z,4.83
2018-01-24T18:27:36.582Z,4.70
2018-01-24T18:30:07.006Z,4.23
2018-01-24T18:32:37.475Z,4.00
2018-01-24T18:35:07.145Z,4.20
2018-01-24T18:37:37.577Z,4.80
2018-01-24T18:40:07.332Z,4.50
2018-01-24T18:42:37.057Z,4.83
2018-01-24T18:45:06.830Z,4.07
2018-01-24T18:47:36.532Z,4.50
2018-01-24T18:50:06.242Z,4.27
2018-01-24T18:52:36.101Z,4.10
2018-01-24T18:55:05.810Z,4.50
2018-01-24T18:57:35.498Z,3.97
2018-01-24T19:00:05.401Z,4.30
2018-01-24T19:02:35.103Z,4.50
2018-01-24T19:05:04.840Z,4.13
2018-01-24T19:07:34.585Z,4.60
2018-01-24T19:10:05.070Z,4.40
2018-01-24T19:12:34.827Z,4.40
2018-01-24T19:15:05.298Z,4.67
2018-01-24T19:17:35.602Z,4.00
2018-01-24T19:20:05.318Z,4.40
2018-01-24T19:22:35.045Z,3.70
2018-01-24T19:25:04.714Z,4.60
2018-01-24T19:27:35.181Z,4.87
2018-01-24T19:30:04.908Z,3.80
2018-01-24T19:32:34.563Z,5.20
2018-01-24T19:35:05.010Z,4.77
2018-01-24T19:37:34.694Z,4.10
2018-01-24T19:40:05.184Z,4.90
2018-01-24T19:42:34.977Z,5.57
2018-01-24T19:45:04.677Z,5.30
2018-01-24T19:47:34.357Z,3.80
2018-01-24T19:50:04.973Z,4.53
2018-01-24T19:52:35.463Z,4.73
2018-01-24T19:55:05.217Z,4.83
2018-01-24T19:57:35.688Z,4.60
2018-01-24T20:00:05.432Z,5.07
2018-01-24T20:02:35.114Z,5.10
2018-01-24T20:05:04.786Z,5.30
2018-01-24T20:07:35.245Z,5.53
2018-01-24T20:10:05.013Z,5.80
2018-01-24T20:12:35.477Z,4.90
2018-01-24T20:15:05.161Z,4.60
2018-01-24T20:17:34.873Z,5.30
2018-01-24T20:20:04.590Z,5.30
2018-01-24T20:22:34.309Z,5.40
2018-01-24T20:25:03.998Z,5.03
2018-01-24T20:27:33.665Z,5.60
2018-01-24T20:30:03.369Z,6.30
2018-01-24T20:32:33.030Z,5.67
2018-01-24T20:35:02.794Z,5.30
2018-01-24T20:37:32.475Z,6.70
2018-01-24T20:40:02.169Z,5.87
2018-01-24T20:42:31.880Z,6.67
2018-01-24T20:45:01.565Z,6.77
2018-01-24T20:47:32.019Z,6.33
2018-01-24T20:50:01.765Z,6.57
2018-01-24T20:52:31.437Z,6.20
2018-01-24T20:55:01.118Z,7.00
2018-01-24T20:57:31.539Z,6.20
2018-01-24T21:00:02.311Z,6.63
2018-01-24T21:02:31.985Z,6.43
2018-01-24T21:05:02.430Z,6.70
2018-01-24T21:07:32.093Z,7.10
2018-01-24T21:10:02.397Z,5.83
2018-01-24T21:12:32.090Z,6.60
2018-01-24T21:15:01.749Z,6.53
2018-01-24T21:17:32.220Z,7.00
2018-01-24T21:20:01.968Z,6.13
2018-01-24T21:22:31.653Z,5.87
2018-01-24T21:25:01.325Z,6.40
2018-01-24T21:27:31.761Z,6.83
2018-01-24T21:30:12.638Z,5.63
2018-01-24T21:32:53.561Z,6.33
2018-01-24T21:35:34.342Z,6.53
2018-01-24T21:38:04.030Z,6.43
2018-01-24T21:40:33.716Z,6.90
2018-01-24T21:43:03.412Z,6.90
2018-01-24T21:45:33.094Z,6.37
2018-01-24T21:48:03.565Z,6.83
2018-01-24T21:50:33.252Z,6.43
2018-01-24T21:53:02.910Z,7.17
2018-01-24T21:55:32.596Z,6.30
2018-01-24T21:58:02.254Z,6.67
2018-01-24T22:00:32.720Z,6.90
2018-01-24T22:03:02.406Z,8.20
2018-01-24T22:05:32.124Z,6.80
2018-01-24T22:08:01.792Z,6.63
2018-01-24T22:10:31.478Z,6.60
2018-01-24T22:13:01.156Z,7.93
2018-01-24T22:15:30.841Z,8.37
2018-01-24T22:18:01.297Z,7.70
2018-01-24T22:20:31.013Z,8.50
2018-01-24T22:23:00.682Z,8.87
2018-01-24T22:25:31.137Z,8.80
2018-01-24T22:28:00.790Z,9.07
2018-01-24T22:30:30.527Z,9.30
2018-01-24T22:33:01.006Z,8.83
2018-01-24T22:35:30.702Z,9.23
2018-01-24T22:38:00.422Z,9.90
2018-01-24T22:40:30.120Z,8.87
2018-01-24T22:42:59.972Z,7.80
2018-01-24T22:45:29.906Z,9.07
2018-01-24T22:48:00.345Z,10.33
2018-01-24T22:50:30.866Z,10.30
2018-01-24T22:53:01.646Z,11.23
2018-01-24T22:55:31.514Z,11.27
2018-01-24T22:58:01.944Z,13.40
2018-01-24T23:00:32.417Z,12.63
2018-01-24T23:03:02.117Z,12.43
2018-01-24T23:05:32.633Z,12.90
2018-01-24T23:08:02.340Z,12.20
2018-01-24T23:10:32.057Z,13.00
2018-01-24T23:13:01.749Z,12.07
2018-01-24T23:15:32.228Z,12.53
2018-01-24T23:18:01.915Z,12.87
2018-01-24T23:20:31.581Z,11.83
2018-01-24T23:23:02.082Z,13.20
2018-01-24T23:25:33.062Z,12.87
2018-01-24T23:28:03.514Z,12.53
2018-01-24T23:30:33.238Z,13.00
2018-01-24T23:33:02.949Z,12.00
2018-01-24T23:35:32.808Z,12.80
2018-01-24T23:38:03.270Z,13.23
2018-01-24T23:40:32.994Z,12.77
2018-01-24T23:43:03.313Z,12.87
2018-01-24T23:45:33.077Z,12.87
2018-01-24T23:48:03.545Z,11.90
2018-01-24T23:50:33.290Z,12.27
2018-01-24T23:53:03.373Z,12.10
2018-01-24T23:55:33.114Z,12.37
2018-01-24T23:58:02.797Z,10.47
